Lleida-Alguaire Airport

LEDA · Lleida, Catalonia, Spain

METAR history LEDA · Lleida-Alguaire Airport

Below you see METARs of the last few days. Select a year to browse through older METARs, from the year 2007 onwards.

December 8, 2022

Time Code Weather Temp. Visibility Ceiling Wind METAR/SPECI
07:30
I
6 °C 1.6 km 2,000 ft Var Var 1 kt METAR LEDA 080630Z AUTO VRB01KT 1600 BR OVC020 06/06 Q1009
07:00
I
7 °C 3.3 km 2,000 ft Var Var 2 kt METAR LEDA 080600Z AUTO VRB02KT 3300 BR OVC020 07/07 Q1008
06:30
I
7 °C 2.2 km 2,000 ft 060° 060° 1 kt METAR LEDA 080530Z AUTO 06001KT 2200 BR OVC020 07/07 Q1008
06:00
L
6 °C 350 m - 080° 080° 2 kt METAR LEDA 080500Z AUTO 08002KT 0350 R31/0800D FG SCT022 06/06 Q1008
05:30
L
7 °C 350 m - 070° 070° 3 kt METAR LEDA 080430Z AUTO 07003KT 030V120 0350 R31/1300U FG FEW004 07/07 Q1008
05:00
L
7 °C 50 m 100 ft 040° 040° 7 kt METAR LEDA 080400Z AUTO 04007KT 0050 R31/0300N FG VV001 07/07 Q1009
04:30
L
6 °C 100 m - 040° 040° 5 kt METAR LEDA 080330Z AUTO 04005KT 0100 R31/0325N FG FEW005 06/06 Q1009
04:00
L
7 °C 600 m - Var Var 1 kt METAR LEDA 080300Z AUTO VRB01KT 0600 R31/1600N FG FEW004 07/07 Q1010
03:30
I
7 °C 1.8 km - Var 000° 0 kt METAR LEDA 080230Z AUTO 00000KT 1800 BR SCT006 07/07 Q1010
03:00
I
8 °C 1.8 km - 070° 070° 4 kt METAR LEDA 080200Z AUTO 07004KT 040V100 1800 BR NSC 08/08 Q1010
02:30
I
8 °C 2.3 km - 060° 060° 7 kt METAR LEDA 080130Z AUTO 06007KT 2300 BR SCT004 08/08 Q1010
02:00
L
8 °C 2.1 km 300 ft 070° 070° 4 kt METAR LEDA 080100Z AUTO 07004KT 2100 BR OVC003 08/08 Q1011
01:30
L
8 °C 1 km 200 ft 040° 040° 4 kt METAR LEDA 080030Z AUTO 04004KT 340V070 1000 R31/1800U BR BKN002 OVC006 08/08 Q1011
01:00
L
8 °C 1.2 km 500 ft 040° 040° 4 kt METAR LEDA 080000Z AUTO 04004KT 360V070 1200 R31/P2000 BR OVC005 08/08 Q1011
00:30
L
8 °C 1.4 km 600 ft 030° 030° 3 kt METAR LEDA 072330Z AUTO 03003KT 1400 R31/P2000 BR OVC006 08/08 Q1011
00:00
L
8 °C 2.6 km 400 ft 050° 050° 3 kt METAR LEDA 072300Z AUTO 05003KT 2600 BR OVC004 08/08 Q1012

December 7, 2022

Time Code Weather Temp. Visibility Ceiling Wind METAR/SPECI
23:30
I
8 °C 2.8 km 500 ft Var Var 1 kt METAR LEDA 072230Z AUTO VRB01KT 2800 BR OVC005 08/08 Q1012
23:00
I
8 °C 3 km 600 ft 100° 100° 2 kt METAR LEDA 072200Z AUTO 10002KT 3000 BR OVC006 08/08 Q1012
22:30
I
8 °C 4 km 600 ft 070° 070° 4 kt METAR LEDA 072130Z AUTO 07004KT 4000 BR OVC006 08/08 Q1012
22:00
L
8 °C 1.4 km 600 ft Var Var 1 kt METAR LEDA 072100Z AUTO VRB01KT 1400 R31/P2000 BR OVC006 08/08 Q1012
21:30
I
8 °C 1.6 km 500 ft Var Var 1 kt METAR LEDA 072030Z AUTO VRB01KT 1600 BR OVC005 08/08 Q1012
21:00
L
8 °C 1.4 km 500 ft 180° 180° 3 kt METAR LEDA 072000Z AUTO 18003KT 1400 R31/P2000 BR OVC005 08/08 Q1012
20:30
I
8 °C 2.3 km 500 ft Var Var 1 kt METAR LEDA 071930Z AUTO VRB01KT 2300 BR OVC005 08/08 Q1012
20:00
L
8 °C 3.1 km 400 ft Var Var 2 kt METAR LEDA 071900Z AUTO VRB02KT 3100 BR OVC004 08/08 Q1012
19:30
I
8 °C 4.6 km 500 ft Var Var 1 kt METAR LEDA 071830Z AUTO VRB01KT 4600 BR OVC005 08/08 Q1012
19:00
I
8 °C 5 km 500 ft 160° 160° 2 kt METAR LEDA 071800Z AUTO 16002KT 5000 BR OVC005 08/08 Q1012
18:30
L
8 °C 6 km 400 ft Var Var 1 kt METAR LEDA 071730Z AUTO VRB01KT 6000 OVC004 08/08 Q1012
18:00
L
8 °C 6 km 400 ft 210° 210° 2 kt METAR LEDA 071700Z 21002KT 6000 OVC004 08/08 Q1013
17:30
L
8 °C 4.5 km 400 ft 210° 210° 3 kt METAR LEDA 071630Z 21003KT 4500 BR OVC004 08/08 Q1013
17:00
L
8 °C 4.5 km 400 ft 200° 200° 3 kt METAR LEDA 071600Z 20003KT 4500 BR OVC004 08/08 Q1013
16:30
L
8 °C 6 km 300 ft 270° 270° 3 kt METAR LEDA 071530Z 27003KT 240V310 6000 OVC003 08/08 Q1013
16:00
L
8 °C 3.4 km 200 ft Var Var 2 kt METAR LEDA 071500Z VRB02KT 3400 BR OVC002 08/08 Q1013
15:30
L
8 °C 2.1 km 200 ft Var Var 2 kt METAR LEDA 071430Z VRB02KT 2100 BR OVC002 08/08 Q1013
15:00
L
8 °C 1.5 km 100 ft 250° 250° 4 kt METAR LEDA 071400Z 25004KT 1500 BR OVC001 08/08 Q1013
14:33
L
8 °C 900 m 200 ft 250° 250° 3 kt SPECI LEDA 071333Z 25003KT 230V290 0900 R31/1600D FG OVC002 08/08 Q1013
14:30
L
8 °C 2.5 km 200 ft 260° 260° 3 kt METAR LEDA 071330Z 26003KT 2500 BR OVC002 08/08 Q1013
14:00
L
8 °C 3 km 400 ft 240° 240° 3 kt METAR LEDA 071300Z 24003KT 200V300 3000 BR OVC004 08/08 Q1014
13:30
L
8 °C 6 km 400 ft Var Var 1 kt METAR LEDA 071230Z VRB01KT 6000 OVC004 08/08 Q1014
13:00
L
8 °C 5 km 300 ft Var Var 2 kt METAR LEDA 071200Z VRB02KT 5000 BR OVC003 08/08 Q1014
12:30
L
8 °C 3.2 km 200 ft Var 000° 0 kt METAR LEDA 071130Z 00000KT 3200 BR OVC002 08/08 Q1015
12:00
L
8 °C 1.9 km 100 ft Var Var 1 kt METAR LEDA 071100Z VRB01KT 1900 BR OVC001 08/08 Q1015
11:30
L
8 °C 1.7 km 200 ft Var 000° 0 kt METAR LEDA 071030Z 00000KT 1700 BR OVC002 08/08 Q1016
11:00
L
8 °C 900 m 100 ft 120° 120° 1 kt METAR LEDA 071000Z 12001KT 0900 R31/1200U FG OVC001 08/08 Q1016
10:30
L
8 °C 600 m 200 ft Var Var 1 kt METAR LEDA 070930Z VRB01KT 0600 R31/0900N FG VV002 08/08 Q1015
10:00
L
7 °C 200 m 200 ft 090° 090° 2 kt METAR LEDA 070900Z 09002KT 0200 R31/0400N FG VV002 07/07 Q1015
09:30
L
7 °C 200 m 100 ft 110° 110° 2 kt METAR LEDA 070830Z 11002KT 0200 R31/0375U FG VV001 07/07 Q1015
09:00
L
7 °C 150 m 100 ft Var Var 2 kt METAR LEDA 070800Z VRB02KT 0150 R31/0350N FG -DZ VV001 07/07 Q1015
08:30
L
7 °C 150 m 100 ft 050° 050° 2 kt METAR LEDA 070730Z 05002KT 0150 R31/0375N FG -DZ VV001 07/07 Q1015
08:00
L
7 °C 250 m 200 ft Var Var 1 kt METAR LEDA 070700Z VRB01KT 0250 R31/0700N FG VV002 07/07 Q1015
07:30
L
7 °C 250 m 200 ft Var 000° 0 kt METAR LEDA 070630Z AUTO 00000KT 0250 R31/0800N FG VV002 07/07 Q1015
07:00
L
7 °C 150 m 200 ft 200° 200° 2 kt METAR LEDA 070600Z AUTO 20002KT 0150 R31/0450N FG VV002 07/07 Q1015
06:30
L
7 °C 100 m 100 ft 190° 190° 3 kt METAR LEDA 070530Z AUTO 19003KT 160V220 0100 R31/0350N FG VV001 07/07 Q1015
06:00
L
7 °C 100 m 100 ft 180° 180° 4 kt METAR LEDA 070500Z AUTO 18004KT 0100 R31/0350N FG VV001 07/07 Q1015
05:30
L
7 °C 100 m 100 ft 180° 180° 4 kt METAR LEDA 070430Z AUTO 18004KT 0100 R31/0325N FG VV001 07/07 Q1015
05:00
L
7 °C 50 m 100 ft 170° 170° 2 kt METAR LEDA 070400Z AUTO 17002KT 0050 R31/0300N FG VV001 07/07 Q1015
04:30
L
7 °C 50 m 100 ft Var 000° 0 kt METAR LEDA 070330Z AUTO 00000KT 0050 R31/0300N FG VV001 07/07 Q1015
04:00
L
7 °C 50 m 100 ft 170° 170° 1 kt METAR LEDA 070300Z AUTO 17001KT 0050 R31/0300N FG VV001 07/07 Q1015
03:30
L
7 °C 50 m 100 ft Var Var 1 kt METAR LEDA 070230Z AUTO VRB01KT 0050 R31/0250N FG VV001 07/07 Q1015
03:00
L
7 °C 50 m 100 ft Var Var 1 kt METAR LEDA 070200Z AUTO VRB01KT 0050 R31/0300N FG VV001 07/07 Q1015
02:30
L
7 °C 50 m 100 ft Var Var 1 kt METAR LEDA 070130Z AUTO VRB01KT 0050 R31/0200N FG VV001 07/07 Q1015
02:00
L
6 °C 50 m 100 ft 260° 260° 1 kt METAR LEDA 070100Z AUTO 26001KT 0050 R31/0200N FG VV001 06/06 Q1015
01:30
L
6 °C 50 m 100 ft 210° 210° 3 kt METAR LEDA 070030Z AUTO 21003KT 190V250 0050 R31/0200N FG VV001 06/06 Q1016
01:00
L
6 °C 0 m 100 ft Var Var 2 kt METAR LEDA 070000Z AUTO VRB02KT 0000 R31/0150N FG VV001 06/06 Q1016
00:30
L
5 °C 50 m 100 ft Var Var 2 kt METAR LEDA 062330Z AUTO VRB02KT 0050 R31/0225N FG VV001 05/05 Q1016
00:00
L
5 °C 50 m 100 ft 050° 050° 4 kt METAR LEDA 062300Z AUTO 05004KT 030V190 0050 R31/0175N FG VV001 05/05 Q1016

December 6, 2022

Time Code Weather Temp. Visibility Ceiling Wind METAR/SPECI
23:30
L
6 °C 1.1 km - 080° 080° 3 kt METAR LEDA 062230Z AUTO 08003KT 1100 R31/1600U BR NCD 06/06 Q1016
23:00
I
6 °C 1.7 km - 110° 110° 3 kt METAR LEDA 062200Z AUTO 11003KT 1700 BR NCD 06/06 Q1016
22:30
L
6 °C 900 m - 120° 120° 3 kt METAR LEDA 062130Z AUTO 12003KT 100V170 0900 R31/1500N FG VV/// 06/06 Q1016
22:00
I
8 °C 3 km - Var Var 1 kt METAR LEDA 062100Z AUTO VRB01KT 3000 BR FEW017 08/08 Q1016
21:30
I
8 °C 2.6 km 1,700 ft Var Var 2 kt METAR LEDA 062030Z AUTO VRB02KT 2600 BR BKN017 08/07 Q1015
21:00
I
7 °C 3.1 km - 290° 290° 4 kt METAR LEDA 062000Z AUTO 29004KT 3100 BR NSC 07/07 Q1015
20:30
I
8 °C 3.5 km - 280° 280° 2 kt METAR LEDA 061930Z AUTO 28002KT 3500 BR NCD 08/07 Q1015
20:00
M
8 °C 5 km - Var 000° 0 kt METAR LEDA 061900Z AUTO 00000KT 5000 BR NSC 08/07 Q1015
19:30
V
9 °C 8 km - 200° 200° 4 kt METAR LEDA 061830Z AUTO 20004KT 150V240 8000 NSC 09/08 Q1015
19:00
M
10 °C 7 km - 220° 220° 5 kt METAR LEDA 061800Z 22005KT 170V250 7000 NSC 10/08 Q1015
18:30
V
10 °C 9 km - 190° 190° 4 kt METAR LEDA 061730Z 19004KT 150V230 9000 NSC 10/08 Q1015
18:00
V
11 °C 10 km+ - 210° 210° 4 kt METAR LEDA 061700Z 21004KT CAVOK 11/08 Q1015
17:30
V
12 °C 10 km+ - 210° 210° 5 kt METAR LEDA 061630Z 21005KT CAVOK 12/09 Q1015
17:00
V
13 °C 10 km+ - 230° 230° 4 kt METAR LEDA 061600Z 23004KT CAVOK 13/08 Q1014
16:30
V
13 °C 10 km+ - 220° 220° 5 kt METAR LEDA 061530Z 22005KT CAVOK 13/08 Q1014
16:00
V
13 °C 10 km+ - 230° 230° 4 kt METAR LEDA 061500Z 23004KT 200V280 CAVOK 13/08 Q1014
15:30
V
14 °C 10 km+ - 220° 220° 4 kt METAR LEDA 061430Z 22004KT CAVOK 14/08 Q1014
15:00
V
13 °C 10 km+ - 220° 220° 4 kt METAR LEDA 061400Z 22004KT 190V280 CAVOK 13/08 Q1014
14:30
V
13 °C 10 km+ - 210° 210° 5 kt METAR LEDA 061330Z 21005KT 160V260 CAVOK 13/08 Q1015
14:00
V
12 °C 10 km+ - 240° 240° 4 kt METAR LEDA 061300Z 24004KT 210V310 CAVOK 12/08 Q1015
13:30
V
12 °C 10 km+ - 240° 240° 4 kt METAR LEDA 061230Z 24004KT 210V280 CAVOK 12/08 Q1015
13:00
V
12 °C 10 km+ - 230° 230° 3 kt METAR LEDA 061200Z 23003KT 150V290 CAVOK 12/07 Q1015
12:30
V
12 °C 10 km+ - 210° 210° 1 kt METAR LEDA 061130Z 21001KT CAVOK 12/07 Q1016
12:00
V
11 °C 10 km+ - 120° 120° 3 kt METAR LEDA 061100Z 12003KT 080V190 CAVOK 11/08 Q1016
11:30
V
10 °C 10 km+ - 060° 060° 1 kt METAR LEDA 061030Z 06001KT CAVOK 10/07 Q1016
11:00
V
9 °C 10 km+ - Var 000° 0 kt METAR LEDA 061000Z 00000KT CAVOK 09/07 Q1016
10:30
V
8 °C 9 km - Var 000° 0 kt METAR LEDA 060930Z 00000KT 9000 NSC 08/07 Q1016
10:00
V
8 °C 8 km - Var 000° 0 kt METAR LEDA 060900Z 00000KT 8000 NSC 08/07 Q1016
09:30
M
7 °C 7 km - 270° 270° 3 kt METAR LEDA 060830Z 27003KT 230V290 7000 FEW023 07/06 Q1016
09:00
M
7 °C 7 km - 300° 300° 3 kt METAR LEDA 060800Z 30003KT 7000 NSC 07/06 Q1016
08:30
M
6 °C 5 km - 320° 320° 4 kt METAR LEDA 060730Z 32004KT 290V350 5000 BR NSC 06/06 Q1015
08:00
M
6 °C 7 km - 310° 310° 4 kt METAR LEDA 060700Z 31004KT 7000 NSC 06/06 Q1015
07:30
M
6 °C 6 km - 330° 330° 2 kt METAR LEDA 060630Z AUTO 33002KT 6000 NSC 06/06 Q1015
07:00
M
6 °C 6 km - 220° 220° 3 kt METAR LEDA 060600Z AUTO 22003KT 6000 NSC 06/06 Q1015
06:30
M
6 °C 7 km - 190° 190° 2 kt METAR LEDA 060530Z AUTO 19002KT 7000 NSC 06/06 Q1015
06:00
M
6 °C 7 km - 190° 190° 3 kt METAR LEDA 060500Z AUTO 19003KT 7000 NSC 06/06 Q1015
05:30
M
6 °C 5 km - 050° 050° 3 kt METAR LEDA 060430Z AUTO 05003KT 5000 BR NSC 06/05 Q1014
05:00
I
6 °C 4.8 km - 030° 030° 3 kt METAR LEDA 060400Z AUTO 03003KT 4800 BR NSC 06/05 Q1014
04:30
I
6 °C 4.1 km - 040° 040° 3 kt METAR LEDA 060330Z AUTO 04003KT 4100 BR NSC 06/05 Q1015
04:00
I
6 °C 4.6 km - 040° 040° 3 kt METAR LEDA 060300Z AUTO 04003KT 4600 BR NSC 06/06 Q1015
03:30
I
7 °C 4.4 km - 020° 020° 5 kt METAR LEDA 060230Z AUTO 02005KT 4400 BR NSC 07/06 Q1015
03:00
V
8 °C 10 km+ - Var Var 1 kt METAR LEDA 060200Z AUTO VRB01KT CAVOK 08/06 Q1016
02:30
V
8 °C 10 km+ - Var 000° 0 kt METAR LEDA 060130Z AUTO 00000KT CAVOK 08/06 Q1015
02:00
V
9 °C 10 km+ - Var 000° 0 kt METAR LEDA 060100Z AUTO 00000KT CAVOK 09/06 Q1015
01:30
V
9 °C 10 km+ - Var Var 1 kt METAR LEDA 060030Z AUTO VRB01KT CAVOK 09/06 Q1016
01:00
V
9 °C 10 km+ - Var Var 1 kt METAR LEDA 060000Z AUTO VRB01KT 9999 FEW032 SCT055 09/06 Q1016
00:30
V
9 °C 10 km+ 3,000 ft 310° 310° 1 kt METAR LEDA 052330Z AUTO 31001KT 9999 OVC030 09/06 Q1016
00:00
V
8 °C 10 km+ 3,000 ft 310° 310° 3 kt METAR LEDA 052300Z AUTO 31003KT 9999 OVC030 08/06 Q1016

December 5, 2022

Time Code Weather Temp. Visibility Ceiling Wind METAR/SPECI
23:30
V
8 °C 10 km+ 3,100 ft 330° 330° 3 kt METAR LEDA 052230Z AUTO 33003KT 9999 BKN031 BKN050 08/06 Q1016
23:00
V
7 °C 10 km+ 3,200 ft Var Var 1 kt METAR LEDA 052200Z AUTO VRB01KT 9999 BKN032 OVC045 07/06 Q1016
22:30
V
7 °C 10 km+ 3,000 ft 030° 030° 1 kt METAR LEDA 052130Z AUTO 03001KT 9999 BKN030 OVC041 07/06 Q1016
22:00
M
7 °C 10 km+ 2,800 ft 180° 180° 2 kt METAR LEDA 052100Z AUTO 18002KT 9999 BKN028 BKN043 07/06 Q1016
21:30
V
7 °C 10 km+ - 240° 240° 6 kt METAR LEDA 052030Z AUTO 24006KT 9999 SCT043 07/05 Q1016
21:00
V
7 °C 10 km+ - 090° 090° 3 kt METAR LEDA 052000Z AUTO 09003KT CAVOK 07/06 Q1016
20:30
V
7 °C 8 km 4,400 ft 040° 040° 2 kt METAR LEDA 051930Z AUTO 04002KT 8000 BKN044 07/06 Q1016
20:00
V
8 °C 10 km+ - Var Var 1 kt METAR LEDA 051900Z AUTO VRB01KT 9999 FEW046 08/07 Q1016
19:30
V
8 °C 10 km+ - 010° 010° 1 kt METAR LEDA 051830Z AUTO 01001KT 9999 FEW031 08/06 Q1016
19:00
M
8 °C 8 km 2,900 ft 360° 360° 3 kt METAR LEDA 051800Z AUTO 36003KT 8000 OVC029 08/07 Q1016
18:30
V
8 °C 10 km+ 3,000 ft 350° 350° 2 kt METAR LEDA 051730Z AUTO 35002KT 9999 BKN030 OVC057 08/07 Q1016
18:00
V
8 °C 10 km+ 5,500 ft 230° 230° 2 kt METAR LEDA 051700Z 23002KT 9999 FEW035 OVC055 08/06 Q1016
17:30
V
9 °C 10 km+ 4,700 ft 200° 200° 4 kt METAR LEDA 051630Z 20004KT 9999 SCT032 BKN047 OVC056 09/07 Q1016
17:00
V
9 °C 10 km+ 4,500 ft Var Var 1 kt METAR LEDA 051600Z VRB01KT 9999 FEW035 BKN045 09/07 Q1016
16:30
V
9 °C 10 km+ 5,000 ft Var 000° 0 kt METAR LEDA 051530Z 00000KT 9999 FEW035 BKN050 09/06 Q1016
16:00
V
8 °C 10 km+ 4,000 ft 310° 310° 4 kt METAR LEDA 051500Z 31004KT 280V340 9999 FEW028 BKN040 OVC046 08/06 Q1016
15:30
M
9 °C 10 km+ 2,800 ft 280° 280° 5 kt METAR LEDA 051430Z 28005KT 9999 OVC028 09/06 Q1016
15:00
V
11 °C 10 km+ 4,800 ft Var 000° 0 kt METAR LEDA 051400Z 00000KT 9999 SCT030 BKN048 11/05 Q1016
14:30
V
10 °C 10 km+ 5,000 ft Var Var 1 kt METAR LEDA 051330Z VRB01KT 9999 FEW042 BKN050 10/05 Q1016
14:00
V
10 °C 10 km+ 5,000 ft 120° 120° 3 kt METAR LEDA 051300Z 12003KT 080V160 9999 BKN050 10/05 Q1016
13:30
V
8 °C 10 km+ 4,900 ft Var Var 2 kt METAR LEDA 051230Z VRB02KT 9999 OVC049 08/07 Q1016
13:00
V
7 °C 10 km+ 5,000 ft 320° 320° 3 kt METAR LEDA 051200Z 32003KT 280V020 9999 FEW038 BKN050 07/06 Q1017
12:30
V
8 °C 10 km+ - 350° 350° 4 kt METAR LEDA 051130Z 35004KT 320V030 9999 SCT048 08/05 Q1018
12:00
V
7 °C 10 km+ - 020° 020° 3 kt METAR LEDA 051100Z 02003KT 320V100 9999 FEW048 07/06 Q1018
11:30
V
6 °C 10 km+ - 060° 060° 3 kt METAR LEDA 051030Z 06003KT 010V110 9999 FEW060 06/06 Q1018
11:00
V
4 °C 10 km+ - 100° 100° 1 kt METAR LEDA 051000Z 10001KT 9999 VCFG FEW002 SCT060 04/04 Q1018

We and third parties follow your internet behavior on our website with cookies. If you continue, we assume you agree with our cookie policy.